Albion, Illinois
Current Conditions -  °F | °C
As of 11:35 AM on Saturday 25 Oct 2014 (Local Time) from KFWC Reporting Station
Clear Clear  
Wind Chill: 71°   Ceiling: Unl
Heat Index: 71°   Visibility: 10mi
Dew Point: 59°   Wind: 0mph
Humidity: 65%   Direction: NA
Pressure: 30.01"   Gusts: NA
Location:  38.38°N, 88.06°W
Report Text: KFWC 251635Z AUTO 00000KT 10SM CLR 22/15 A3001 RMK AO1 T02190151
Loading
Personal Weather Stations






























Interactive Weather Map
Tropical Storm Tracking
New forecast layout! Learn more

10-Day Weather Forecast

Advertisements
Track Severe Weather on mobile